Time;durP1;ratioP1;P1;durP2;ratioP2;P2;SDS_P1;SDS_P2;PMS_P1;PMS_P2;Temp;Humidity;BMP_temperature;BMP_pressure;BME280_temperature;BME280_humidity;BME280_pressure;Samples;Min_cycle;Max_cycle;Signal;HPM_P1;HPM_P2
2023/10/28 00:02:20;;;;;;;1.00;0.90;;;;;;;7.46;100.00;97981.53;6125073;23;20271;-80
2023/10/28 00:04:51;;;;;;;0.63;0.63;;;;;;;7.45;100.00;97981.78;6100805;23;20167;-81
2023/10/28 00:07:22;;;;;;;0.80;0.60;;;;;;;7.42;100.00;97980.38;6100086;23;20203;-80
2023/10/28 00:09:51;;;;;;;0.93;0.83;;;;;;;7.39;100.00;97980.03;6099722;23;20168;-81
2023/10/28 00:12:28;;;;;;;1.07;0.90;;;;;;;7.36;100.00;97993.84;6123894;23;20251;-80
2023/10/28 00:15:03;;;;;;;2.77;1.00;;;;;;;7.33;100.00;98002.31;6125879;23;20169;-81
2023/10/28 00:17:38;;;;;;;0.90;0.80;;;;;;;7.31;100.00;97999.91;6125733;23;20175;-82
2023/10/28 00:20:15;;;;;;;1.83;0.90;;;;;;;7.28;100.00;97995.03;6102790;23;20180;-81
2023/10/28 00:22:46;;;;;;;1.70;1.10;;;;;;;7.23;100.00;97994.16;6127228;23;20219;-80
2023/10/28 00:25:15;;;;;;;1.73;0.77;;;;;;;7.20;100.00;97998.06;6078292;23;20171;-82
2023/10/28 00:27:44;;;;;;;0.87;0.73;;;;;;;7.16;100.00;97986.28;6125750;23;20190;-81
2023/10/28 00:30:12;;;;;;;1.13;0.87;;;;;;;7.13;100.00;97989.44;6101579;23;20167;-81
2023/10/28 00:32:41;;;;;;;0.77;0.70;;;;;;;7.07;100.00;97982.38;6101280;23;20204;-81
2023/10/28 00:35:09;;;;;;;0.90;0.80;;;;;;;7.04;100.00;97982.88;6125340;23;20518;-80
2023/10/28 00:37:39;;;;;;;1.10;0.90;;;;;;;7.02;100.00;97983.09;6125669;23;20186;-81
2023/10/28 00:40:10;;;;;;;2.07;1.07;;;;;;;7.00;100.00;97987.03;6077723;23;20180;-81
2023/10/28 00:42:48;;;;;;;0.87;0.80;;;;;;;6.94;100.00;97980.81;6102469;23;20632;-82
2023/10/28 00:45:19;;;;;;;2.10;1.43;;;;;;;6.89;100.00;97967.41;6101646;23;20181;-81
2023/10/28 00:47:49;;;;;;;2.10;1.67;;;;;;;6.81;100.00;97972.28;6126182;23;20195;-81
2023/10/28 00:50:24;;;;;;;1.77;1.40;;;;;;;6.74;100.00;97966.25;6124909;23;20167;-81
2023/10/28 00:53:02;;;;;;;1.60;1.20;;;;;;;6.69;100.00;97974.16;6101542;23;20168;-81
2023/10/28 00:55:37;;;;;;;3.40;1.23;;;;;;;6.62;100.00;97974.28;6126638;23;20190;-81
2023/10/28 00:58:10;;;;;;;1.20;0.97;;;;;;;6.59;100.00;97985.38;6125313;23;20148;-80
2023/10/28 01:00:39;;;;;;;3.93;1.20;;;;;;;6.54;100.00;97988.75;6077475;23;20170;-80
2023/10/28 01:03:10;;;;;;;1.00;0.90;;;;;;;6.44;100.00;98009.81;6126258;23;20635;-80
2023/10/28 01:05:42;;;;;;;1.50;0.93;;;;;;;6.40;100.00;98003.31;6124421;23;20586;-80
2023/10/28 01:08:09;;;;;;;1.67;0.90;;;;;;;6.41;100.00;98002.28;6101182;23;20175;-81
2023/10/28 01:10:43;;;;;;;1.20;0.83;;;;;;;6.40;100.00;98010.50;6126745;23;20215;-81
2023/10/28 01:13:15;;;;;;;1.60;0.97;;;;;;;6.39;100.00;98015.00;6102049;23;20187;-81
2023/10/28 01:15:43;;;;;;;0.80;0.80;;;;;;;6.36;100.00;98022.66;6101089;23;20164;-81
2023/10/28 01:18:17;;;;;;;1.73;0.80;;;;;;;6.34;100.00;98008.78;6125067;23;20140;-81
2023/10/28 01:20:46;;;;;;;1.30;1.00;;;;;;;6.30;100.00;98013.72;6100453;23;20172;-80
2023/10/28 01:23:20;;;;;;;2.53;0.90;;;;;;;6.32;100.00;98032.94;6101365;23;20191;-82
2023/10/28 01:25:48;;;;;;;1.93;1.10;;;;;;;6.35;100.00;98021.00;6100118;23;20595;-81
2023/10/28 01:28:18;;;;;;;1.03;0.90;;;;;;;6.35;100.00;98029.00;6125230;23;20163;-81
2023/10/28 01:30:53;;;;;;;1.53;1.03;;;;;;;6.38;100.00;98016.06;6125127;23;20657;-81
2023/10/28 01:33:24;;;;;;;1.80;1.03;;;;;;;6.36;100.00;98026.13;6101199;23;20162;-81
2023/10/28 01:35:52;;;;;;;1.40;1.10;;;;;;;6.38;100.00;98036.53;6100934;23;20613;-81
2023/10/28 01:38:32;;;;;;;1.70;1.00;;;;;;;6.34;100.00;98030.06;6125012;23;20160;-81
2023/10/28 01:41:08;;;;;;;2.40;1.20;;;;;;;6.36;100.00;98033.28;6124809;23;20187;-81
2023/10/28 01:43:37;;;;;;;1.20;1.10;;;;;;;6.37;100.00;98034.91;6101112;23;20190;-80
2023/10/28 01:46:06;;;;;;;1.87;1.40;;;;;;;6.35;100.00;98037.78;6149337;23;20171;-81
2023/10/28 01:48:33;;;;;;;3.40;1.60;;;;;;;6.39;100.00;98044.25;6123844;23;20178;-81
2023/10/28 01:51:04;;;;;;;1.97;1.23;;;;;;;6.28;100.00;98033.63;6124608;23;20238;-81
2023/10/28 01:53:32;;;;;;;1.77;1.30;;;;;;;6.25;100.00;98045.56;6124726;23;20669;-80
2023/10/28 01:56:05;;;;;;;1.73;1.30;;;;;;;6.23;100.00;98044.97;6126240;23;20167;-81
2023/10/28 01:58:34;;;;;;;1.63;1.30;;;;;;;6.21;100.00;98039.06;6100717;23;20171;-81
2023/10/28 02:01:02;;;;;;;1.43;1.00;;;;;;;6.18;100.00;98045.66;6100747;23;20182;-81
2023/10/28 02:03:31;;;;;;;2.50;1.23;;;;;;;6.15;100.00;98042.66;6076789;23;20225;-81
2023/10/28 02:06:02;;;;;;;1.37;1.17;;;;;;;6.16;100.00;98055.69;6100526;23;20199;-82
2023/10/28 02:08:32;;;;;;;2.00;1.00;;;;;;;6.15;100.00;98053.28;6124983;23;20158;-81
2023/10/28 02:11:07;;;;;;;1.43;1.00;;;;;;;6.12;100.00;98049.22;6100602;23;20247;-83
2023/10/28 02:13:40;;;;;;;1.67;1.07;;;;;;;6.14;100.00;98025.06;6126112;23;20163;-81
2023/10/28 02:16:08;;;;;;;1.33;1.10;;;;;;;6.14;100.00;98049.00;6100116;23;20175;-81
2023/10/28 02:18:36;;;;;;;1.60;1.50;;;;;;;6.14;100.00;98028.53;6124720;23;20170;-81
2023/10/28 02:21:06;;;;;;;1.20;1.10;;;;;;;6.17;100.00;98041.38;6077017;23;20247;-81
2023/10/28 02:23:33;;;;;;;1.40;1.30;;;;;;;6.19;100.00;98038.50;6100635;23;20194;-81
2023/10/28 02:26:03;;;;;;;1.60;1.20;;;;;;;6.19;100.00;98041.97;6076687;23;20177;-81
2023/10/28 02:28:34;;;;;;;2.37;1.37;;;;;;;6.19;100.00;98041.16;6125307;23;20156;-80
2023/10/28 02:31:04;;;;;;;2.17;1.30;;;;;;;6.19;100.00;98026.00;6124407;23;20176;-81
2023/10/28 02:33:34;;;;;;;2.50;1.40;;;;;;;6.17;100.00;98024.59;6124726;23;20175;-82
2023/10/28 02:36:05;;;;;;;1.60;1.40;;;;;;;6.15;100.00;98035.50;6077942;23;20230;-80
2023/10/28 02:38:34;;;;;;;1.43;1.20;;;;;;;6.15;100.00;98032.81;6100257;23;20199;-81
2023/10/28 02:41:05;;;;;;;1.40;1.30;;;;;;;6.13;100.00;98034.88;6123763;23;20190;-81
2023/10/28 02:43:38;;;;;;;1.47;1.13;;;;;;;6.15;100.00;98018.72;6076542;23;20274;-81
2023/10/28 02:46:08;;;;;;;1.63;1.50;;;;;;;6.12;100.00;98049.22;6100400;23;20195;-81
2023/10/28 02:48:39;;;;;;;1.77;1.60;;;;;;;6.10;100.00;98030.03;6100648;23;20201;-81
2023/10/28 02:51:11;;;;;;;1.63;1.50;;;;;;;6.08;100.00;98033.97;6124080;23;20160;-82
2023/10/28 02:53:40;;;;;;;5.57;1.80;;;;;;;6.09;100.00;98036.41;6076420;23;20178;-81
2023/10/28 02:56:11;;;;;;;1.80;1.60;;;;;;;6.00;100.00;98029.78;6124506;23;20187;-81
2023/10/28 02:58:41;;;;;;;1.73;1.60;;;;;;;5.94;100.00;98045.84;6076764;23;20182;-81
2023/10/28 03:01:15;;;;;;;1.70;1.60;;;;;;;5.90;100.00;98031.38;6101303;23;20729;-82
2023/10/28 03:03:45;;;;;;;2.87;1.80;;;;;;;5.82;100.00;98042.31;6100220;23;20545;-83
2023/10/28 03:06:15;;;;;;;2.80;1.80;;;;;;;5.77;100.00;98024.41;6100482;23;20206;-81
2023/10/28 03:08:53;;;;;;;2.00;1.50;;;;;;;5.68;100.00;98041.72;6124524;23;20626;-83
2023/10/28 03:11:26;;;;;;;1.73;1.57;;;;;;;5.62;100.00;98054.03;6124575;23;20162;-83
2023/10/28 03:14:02;;;;;;;1.63;1.53;;;;;;;5.57;100.00;98047.78;6102203;23;20586;-81
2023/10/28 03:16:31;;;;;;;1.97;1.60;;;;;;;5.52;100.00;98060.94;6100749;23;20229;-83
2023/10/28 03:18:58;;;;;;;2.40;2.10;;;;;;;5.45;100.00;98055.72;6100535;23;20168;-81
2023/10/28 03:21:33;;;;;;;1.70;1.60;;;;;;;5.43;100.00;98054.31;6101338;23;20159;-81
2023/10/28 03:24:01;;;;;;;2.50;1.70;;;;;;;5.40;100.00;98068.88;6125672;23;20207;-81
2023/10/28 03:26:32;;;;;;;1.70;1.60;;;;;;;5.38;100.00;98067.44;6126096;23;20144;-82
2023/10/28 03:29:10;;;;;;;1.83;1.70;;;;;;;5.33;100.00;98044.22;6124406;23;20172;-82
2023/10/28 03:31:45;;;;;;;2.00;1.80;;;;;;;5.33;100.00;98060.97;6100823;23;20246;-82
2023/10/28 03:34:17;;;;;;;2.70;2.00;;;;;;;5.33;100.00;98071.59;6124439;23;20155;-84
2023/10/28 03:36:52;;;;;;;1.90;1.70;;;;;;;5.28;100.00;98079.41;6126034;23;20587;-82
2023/10/28 03:39:21;;;;;;;2.43;2.10;;;;;;;5.28;100.00;98075.94;6124703;23;20178;-84
2023/10/28 03:41:57;;;;;;;3.80;2.63;;;;;;;5.28;100.00;98076.75;6124810;23;20218;-82
2023/10/28 03:44:24;;;;;;;2.00;1.47;;;;;;;5.29;100.00;98086.34;6076401;23;20187;-83
2023/10/28 03:46:58;;;;;;;2.30;1.83;;;;;;;5.37;100.00;98071.94;6101400;23;20190;-83
2023/10/28 03:49:37;;;;;;;2.67;2.00;;;;;;;5.44;100.00;98062.06;6104816;23;20178;-82
2023/10/28 03:52:06;;;;;;;2.53;1.80;;;;;;;5.49;100.00;98066.69;6102944;23;20625;-82
2023/10/28 03:54:35;;;;;;;1.70;1.40;;;;;;;5.49;100.00;98062.19;6102945;23;20172;-84
2023/10/28 03:57:05;;;;;;;2.27;1.47;;;;;;;5.49;100.00;98061.38;6128026;23;20179;-82
2023/10/28 03:59:36;;;;;;;1.50;1.40;;;;;;;5.50;100.00;98070.97;6101963;23;20182;-85
2023/10/28 04:02:09;;;;;;;1.70;1.50;;;;;;;5.50;100.00;98070.97;6126835;23;20185;-81
2023/10/28 04:04:39;;;;;;;1.50;1.40;;;;;;;5.50;100.00;98065.66;6102516;23;20635;-82
2023/10/28 04:07:10;;;;;;;2.17;1.70;;;;;;;5.44;100.00;98069.22;6103089;23;20207;-82
2023/10/28 04:09:37;;;;;;;1.90;1.60;;;;;;;5.40;100.00;98076.00;6126093;23;20178;-81
2023/10/28 04:12:05;;;;;;;2.87;1.57;;;;;;;5.40;100.00;98083.97;6102513;23;20242;-82
2023/10/28 04:14:37;;;;;;;3.23;1.57;;;;;;;5.41;100.00;98090.91;6126036;23;20171;-82
2023/10/28 04:17:06;;;;;;;2.73;1.73;;;;;;;5.42;100.00;98092.53;6102638;23;20175;-82
2023/10/28 04:19:46;;;;;;;2.10;1.40;;;;;;;5.46;100.00;98118.41;6104987;23;20146;-86
2023/10/28 04:22:19;;;;;;;1.60;1.50;;;;;;;5.46;100.00;98121.06;6103378;23;20188;-83
2023/10/28 04:24:51;;;;;;;1.50;1.30;;;;;;;5.48;100.00;98128.81;6102043;23;20180;-84
2023/10/28 04:27:19;;;;;;;1.40;1.30;;;;;;;5.51;100.00;98107.94;6102997;23;20253;-82
2023/10/28 04:29:48;;;;;;;1.87;1.40;;;;;;;5.54;100.00;98109.34;6101605;23;20964;-83
2023/10/28 04:32:23;;;;;;;1.30;1.20;;;;;;;5.53;100.00;98099.75;6102990;23;20157;-81
2023/10/28 04:34:54;;;;;;;2.53;1.47;;;;;;;5.52;100.00;98103.44;6125743;23;20163;-81
2023/10/28 04:37:38;;;;;;;1.40;1.20;;;;;;;5.58;100.00;98087.41;6127807;23;20172;-87
2023/10/28 04:40:09;;;;;;;1.77;1.60;;;;;;;5.60;100.00;98087.97;6125614;23;20179;-82
2023/10/28 04:42:40;;;;;;;3.30;1.57;;;;;;;5.63;100.00;98097.38;6102555;23;20259;-84
2023/10/28 04:45:12;;;;;;;2.27;1.43;;;;;;;5.66;100.00;98103.03;6102752;23;20198;-83
2023/10/28 04:47:42;;;;;;;4.60;2.30;;;;;;;5.72;100.00;98109.31;6102535;23;20249;-83
2023/10/28 04:50:13;;;;;;;4.00;2.30;;;;;;;5.74;100.00;98101.91;6125520;23;20243;-82
2023/10/28 04:52:45;;;;;;;3.70;3.30;;;;;;;5.75;100.00;98122.94;6102794;23;20183;-81
2023/10/28 04:55:18;;;;;;;4.13;3.23;;;;;;;5.78;100.00;98125.13;6101927;23;20182;-83
2023/10/28 04:57:49;;;;;;;4.53;2.90;;;;;;;5.82;100.00;98119.41;6102730;23;20238;-85
2023/10/28 05:00:18;;;;;;;3.30;2.70;;;;;;;5.84;100.00;98135.91;6101540;23;20239;-81
2023/10/28 05:02:49;;;;;;;3.00;2.60;;;;;;;5.89;100.00;98136.06;6102979;23;20184;-81
2023/10/28 05:05:16;;;;;;;3.20;2.20;;;;;;;5.87;100.00;98143.47;6077609;23;20188;-82
2023/10/28 05:07:51;;;;;;;2.97;2.17;;;;;;;5.88;100.00;98171.69;6102745;23;20290;-83
2023/10/28 05:10:19;;;;;;;2.47;1.60;;;;;;;5.88;100.00;98180.44;6125064;23;20159;-83
2023/10/28 05:12:47;;;;;;;3.07;1.77;;;;;;;5.93;100.00;98185.09;6126704;23;20195;-81
2023/10/28 05:15:16;;;;;;;1.97;1.70;;;;;;;6.00;100.00;98184.00;6126345;23;20618;-81
2023/10/28 05:17:49;;;;;;;2.33;1.80;;;;;;;6.03;100.00;98202.13;6125467;23;20164;-81
2023/10/28 05:20:17;;;;;;;1.53;1.40;;;;;;;6.09;100.00;98262.41;6125262;23;20642;-83
2023/10/28 05:22:45;;;;;;;1.20;1.10;;;;;;;6.14;100.00;98249.25;6125265;23;20218;-83
2023/10/28 05:25:14;;;;;;;1.87;1.30;;;;;;;6.12;100.00;98235.34;6101208;23;20187;-82
2023/10/28 05:27:49;;;;;;;2.87;1.13;;;;;;;6.14;100.00;98235.97;6124614;23;20612;-82
2023/10/28 05:30:17;;;;;;;1.17;1.00;;;;;;;6.19;100.00;98236.09;6124721;23;20161;-82
2023/10/28 05:32:50;;;;;;;2.67;1.10;;;;;;;6.20;100.00;98221.75;6126090;23;20166;-84
2023/10/28 05:35:18;;;;;;;1.37;1.20;;;;;;;6.25;100.00;98237.06;6124479;23;20171;-84
2023/10/28 05:37:47;;;;;;;1.67;1.30;;;;;;;6.31;100.00;98237.97;6077403;23;20164;-82
2023/10/28 05:40:16;;;;;;;1.27;1.17;;;;;;;6.35;100.00;98231.16;6124728;23;20172;-82
2023/10/28 05:42:49;;;;;;;1.40;1.30;;;;;;;6.43;100.00;98230.84;6101292;23;20171;-81
2023/10/28 05:45:20;;;;;;;1.00;1.00;;;;;;;6.51;100.00;98235.84;6096705;23;20191;-81
2023/10/28 05:47:52;;;;;;;1.53;0.70;;;;;;;6.71;100.00;98247.03;6100509;23;20699;-82
2023/10/28 05:50:27;;;;;;;1.13;0.77;;;;;;;6.90;100.00;98245.09;6124868;23;20669;-81
2023/10/28 05:53:03;;;;;;;1.07;0.60;;;;;;;7.19;100.00;98238.03;6124657;23;20626;-81
2023/10/28 05:55:31;;;;;;;0.80;0.60;;;;;;;7.43;100.00;98240.47;6124394;23;20633;-82
2023/10/28 05:58:05;;;;;;;1.40;0.60;;;;;;;7.68;100.00;98236.72;6101222;23;20152;-81
2023/10/28 06:00:33;;;;;;;0.40;0.40;;;;;;;7.88;100.00;98237.97;6098001;23;20179;-81
2023/10/28 06:03:03;;;;;;;0.70;0.43;;;;;;;8.11;100.00;98237.09;6122365;23;20171;-81
2023/10/28 06:05:31;;;;;;;0.70;0.40;;;;;;;8.29;100.00;98238.75;6095489;23;20192;-81
2023/10/28 06:07:59;;;;;;;2.13;0.40;;;;;;;8.47;100.00;98238.59;6126353;23;20171;-81
2023/10/28 06:10:30;;;;;;;0.60;0.30;;;;;;;8.67;100.00;98236.28;6099765;23;20179;-81
2023/10/28 06:12:58;;;;;;;0.40;0.37;;;;;;;8.84;100.00;98234.44;6077550;23;20259;-82
2023/10/28 06:15:41;;;;;;;0.40;0.40;;;;;;;9.02;100.00;98238.72;6103200;23;20155;-83
2023/10/28 06:18:14;;;;;;;1.30;0.43;;;;;;;9.16;100.00;98236.53;6079218;23;20167;-81
2023/10/28 06:20:45;;;;;;;0.37;0.30;;;;;;;9.29;100.00;98245.03;6124249;23;20615;-82
2023/10/28 06:23:14;;;;;;;0.47;0.33;;;;;;;9.44;100.00;98251.66;6125721;23;20192;-81
2023/10/28 06:25:44;;;;;;;0.30;0.30;;;;;;;9.60;100.00;98250.81;6076260;23;20729;-81
2023/10/28 06:28:13;;;;;;;0.73;0.47;;;;;;;9.76;100.00;98235.78;6100437;23;20615;-81
2023/10/28 06:30:52;;;;;;;1.23;0.60;;;;;;;9.86;100.00;98251.97;6123865;23;20241;-81
2023/10/28 06:33:26;;;;;;;0.60;0.60;;;;;;;9.96;100.00;98252.09;6101174;23;20616;-81
2023/10/28 06:35:54;;;;;;;3.10;1.20;;;;;;;10.08;100.00;98242.06;6100364;23;20172;-81
2023/10/28 06:38:25;;;;;;;1.83;0.70;;;;;;;10.19;100.00;98256.41;6076561;23;20170;-80
2023/10/28 06:40:57;;;;;;;1.77;0.80;;;;;;;10.31;100.00;98267.81;6124125;23;20200;-82
2023/10/28 06:43:25;;;;;;;1.23;0.50;;;;;;;10.35;100.00;98260.91;6122697;23;20618;-82
2023/10/28 06:45:58;;;;;;;1.67;1.00;;;;;;;10.44;100.00;98260.19;6123292;23;20206;-82
2023/10/28 06:48:30;;;;;;;2.93;0.90;;;;;;;10.51;100.00;98268.00;6123517;23;20641;-82
2023/10/28 06:50:59;;;;;;;2.23;1.10;;;;;;;10.63;100.00;98263.34;6099375;23;20168;-84
2023/10/28 06:53:28;;;;;;;2.30;1.37;;;;;;;10.77;100.00;98267.22;6123633;23;20176;-81
2023/10/28 06:55:55;;;;;;;2.03;1.20;;;;;;;10.92;100.00;98269.22;6124613;23;20167;-82
2023/10/28 06:58:26;;;;;;;3.50;1.77;;;;;;;11.18;100.00;98276.44;6099614;23;20171;-82
2023/10/28 07:00:57;;;;;;;1.37;1.03;;;;;;;11.41;100.00;98267.22;6122997;23;20167;-83
2023/10/28 07:03:31;;;;;;;2.97;1.13;;;;;;;11.62;100.00;98268.16;6123559;23;20211;-81
2023/10/28 07:06:00;;;;;;;2.80;1.20;;;;;;;11.80;100.00;98276.59;6122813;23;20230;-82
2023/10/28 07:08:30;;;;;;;1.53;1.03;;;;;;;11.98;100.00;98278.06;6124190;23;20592;-83
2023/10/28 07:11:00;;;;;;;1.50;1.00;;;;;;;12.12;100.00;98284.56;6124588;23;20168;-81
2023/10/28 07:13:30;;;;;;;1.20;0.90;;;;;;;12.23;100.00;98280.84;6124899;23;20145;-82
2023/10/28 07:16:02;;;;;;;1.67;1.33;;;;;;;12.35;100.00;98276.06;6123153;23;20190;-81
2023/10/28 07:18:37;;;;;;;1.40;1.10;;;;;;;12.44;100.00;98280.91;6099578;23;20168;-81
2023/10/28 07:21:06;;;;;;;2.03;1.03;;;;;;;12.54;100.00;98279.06;6097548;23;20224;-81
2023/10/28 07:23:40;;;;;;;1.87;1.23;;;;;;;12.68;100.00;98285.56;6122320;23;20184;-82
2023/10/28 07:26:12;;;;;;;3.37;1.43;;;;;;;12.80;100.00;98280.72;6123135;23;20177;-82
2023/10/28 07:28:40;;;;;;;1.83;1.30;;;;;;;12.91;100.00;98286.94;6122909;23;20174;-83
2023/10/28 07:31:08;;;;;;;2.83;1.40;;;;;;;13.01;100.00;98278.91;6099304;23;20180;-82
2023/10/28 07:33:47;;;;;;;4.93;1.40;;;;;;;13.17;100.00;98295.84;6124508;23;20150;-83
2023/10/28 07:36:17;;;;;;;5.60;1.80;;;;;;;13.27;100.00;98293.16;6075945;23;20183;-82
2023/10/28 07:38:49;;;;;;;4.67;1.77;;;;;;;13.35;100.00;98303.38;6123350;23;20177;-82
2023/10/28 07:41:18;;;;;;;5.20;2.13;;;;;;;13.36;100.00;98302.31;6099246;23;20620;-82
2023/10/28 07:43:46;;;;;;;10.40;4.33;;;;;;;13.37;100.00;98300.44;6122920;23;20177;-82
2023/10/28 07:46:19;;;;;;;10.20;4.83;;;;;;;13.35;100.00;98303.38;6099794;23;20164;-83
2023/10/28 07:48:48;;;;;;;7.40;4.07;;;;;;;13.35;100.00;98306.06;6123054;23;20238;-83
2023/10/28 07:51:19;;;;;;;14.00;4.40;;;;;;;13.33;100.00;98305.56;6100467;23;20225;-83
2023/10/28 07:53:50;;;;;;;10.50;3.40;;;;;;;13.35;100.00;98306.06;6124013;23;20171;-83
2023/10/28 07:56:20;;;;;;;7.23;3.67;;;;;;;13.37;100.00;98312.00;6077971;23;20244;-83
2023/10/28 07:58:50;;;;;;;6.03;3.00;;;;;;;13.41;100.00;98314.97;6076885;23;20175;-83
2023/10/28 08:01:22;;;;;;;5.77;3.03;;;;;;;13.42;100.00;98316.59;6101224;23;20178;-84
2023/10/28 08:03:53;;;;;;;4.70;2.77;;;;;;;13.35;100.00;98318.72;6101404;23;20190;-83
2023/10/28 08:06:26;;;;;;;7.07;2.63;;;;;;;13.35;100.00;98324.09;6123986;23;20191;-83
2023/10/28 08:09:06;;;;;;;3.67;2.40;;;;;;;13.35;100.00;98338.34;6101864;23;20198;-83
2023/10/28 08:11:42;;;;;;;5.57;2.50;;;;;;;13.53;100.00;98328.97;6125237;23;20187;-83
2023/10/28 08:14:14;;;;;;;4.47;2.20;;;;;;;13.72;100.00;98329.22;6123580;23;20234;-84
2023/10/28 08:16:51;;;;;;;2.53;1.97;;;;;;;13.96;100.00;98327.53;6100352;23;20200;-84
2023/10/28 08:19:24;;;;;;;5.10;2.17;;;;;;;14.19;100.00;98342.28;6100164;23;20158;-83
2023/10/28 08:21:52;;;;;;;2.17;1.20;;;;;;;14.37;100.00;98333.66;6124413;23;20241;-83
2023/10/28 08:24:22;;;;;;;2.10;1.23;;;;;;;14.47;100.00;98337.09;6099129;23;20916;-82
2023/10/28 08:26:52;;;;;;;2.37;1.40;;;;;;;14.61;100.00;98336.50;6099493;23;20175;-83
2023/10/28 08:29:24;;;;;;;1.50;1.13;;;;;;;14.59;100.00;98341.38;6124903;23;20168;-83
2023/10/28 08:31:59;;;;;;;1.77;1.30;;;;;;;14.53;100.00;98344.09;6100363;23;20175;-83
2023/10/28 08:34:32;;;;;;;2.30;1.60;;;;;;;14.47;100.00;98347.09;6101123;23;20210;-83
2023/10/28 08:37:07;;;;;;;2.67;1.33;;;;;;;14.48;100.00;98344.13;6078777;23;20178;-83
2023/10/28 08:39:37;;;;;;;1.40;0.67;;;;;;;14.43;100.00;98344.13;6079428;23;20171;-83
2023/10/28 08:42:27;;;;;;;3.00;1.40;;;;;;;14.43;100.00;98352.22;6100710;23;20168;-83
2023/10/28 08:45:01;;;;;;;1.23;0.77;;;;;;;14.29;100.00;98353.03;6077547;23;20188;-82
2023/10/28 08:47:31;;;;;;;4.03;1.00;;;;;;;14.22;100.00;98349.84;6078044;23;20284;-83
2023/10/28 08:49:59;;;;;;;1.10;0.80;;;;;;;14.24;100.00;98345.78;6077593;23;20267;-83
2023/10/28 08:52:28;;;;;;;1.50;0.70;;;;;;;14.29;100.00;98351.16;6101352;23;20171;-83
2023/10/28 08:55:01;;;;;;;1.00;0.50;;;;;;;14.35;100.00;98357.34;6078798;23;20164;-83
2023/10/28 08:57:34;;;;;;;0.83;0.60;;;;;;;14.34;100.00;98358.41;6102113;23;20177;-82
2023/10/28 09:00:14;;;;;;;1.47;1.00;;;;;;;14.30;100.00;98360.84;6122836;23;20163;-82
2023/10/28 09:02:49;;;;;;;1.60;0.80;;;;;;;14.27;100.00;98364.13;6124411;23;20211;-83
2023/10/28 09:05:20;;;;;;;2.50;0.90;;;;;;;14.23;100.00;98365.72;6076757;23;20202;-82
2023/10/28 09:07:48;;;;;;;1.80;0.70;;;;;;;14.31;100.00;98375.13;6100015;23;20662;-82
2023/10/28 09:10:19;;;;;;;2.60;0.83;;;;;;;14.30;100.00;98360.84;6124294;23;20172;-82
2023/10/28 09:12:48;;;;;;;1.47;0.60;;;;;;;14.35;100.00;98373.50;6099757;23;20176;-81
2023/10/28 09:15:22;;;;;;;1.77;0.80;;;;;;;14.42;100.00;98380.25;6124493;23;20174;-82
2023/10/28 09:17:50;;;;;;;1.00;0.67;;;;;;;14.41;100.00;98378.66;6075625;23;20172;-81
2023/10/28 09:20:26;;;;;;;2.43;0.50;;;;;;;14.42;100.00;98380.25;6123982;23;20172;-81
2023/10/28 09:22:55;;;;;;;1.43;0.60;;;;;;;14.40;100.00;98373.53;6099772;23;20195;-82
2023/10/28 09:25:28;;;;;;;1.53;0.70;;;;;;;14.43;100.00;98381.84;6100134;23;20223;-81
2023/10/28 09:27:56;;;;;;;1.63;0.60;;;;;;;14.44;100.00;98385.38;6124206;23;20669;-82
2023/10/28 09:30:28;;;;;;;1.40;0.67;;;;;;;14.46;100.00;98388.59;6099469;23;20171;-81
2023/10/28 09:32:58;;;;;;;0.97;0.50;;;;;;;14.40;100.00;98379.72;6099990;23;20242;-82
2023/10/28 09:35:34;;;;;;;0.67;0.53;;;;;;;14.42;100.00;98382.94;6099468;23;20610;-81
2023/10/28 09:38:10;;;;;;;0.50;0.37;;;;;;;14.42;100.00;98391.03;6100550;23;20230;-81
2023/10/28 09:40:38;;;;;;;0.50;0.33;;;;;;;14.35;100.00;98390.47;6124222;23;20259;-82
2023/10/28 09:43:12;;;;;;;1.23;0.70;;;;;;;14.30;100.00;98395.06;6076380;23;20256;-81
2023/10/28 09:45:41;;;;;;;1.37;0.40;;;;;;;14.25;100.00;98398.59;6100311;23;20190;-81
2023/10/28 09:48:18;;;;;;;0.80;0.57;;;;;;;14.31;100.00;98396.69;6100079;23;20176;-81
2023/10/28 09:50:48;;;;;;;0.80;0.40;;;;;;;14.35;100.00;98395.06;6123529;23;20203;-82
2023/10/28 09:53:33;;;;;;;1.10;0.43;;;;;;;14.42;100.00;98398.28;6125519;23;20191;-82
2023/10/28 09:56:04;;;;;;;1.23;0.50;;;;;;;14.45;100.00;98400.47;6076081;23;20231;-82
2023/10/28 09:59:18;;;;;;;1.37;0.60;;;;;;;14.45;100.00;98395.06;6123885;23;20152;-81
2023/10/28 10:01:55;;;;;;;1.33;0.60;;;;;;;14.49;100.00;98391.56;6110805;23;20172;-82
2023/10/28 10:04:39;;;;;;;2.00;1.43;;;;;;;14.50;100.00;98392.38;6075852;23;20176;-82
2023/10/28 10:07:09;;;;;;;5.10;2.90;;;;;;;14.53;100.00;98394.50;6099492;23;20207;-82
2023/10/28 10:09:42;;;;;;;3.67;1.80;;;;;;;14.61;100.00;98396.63;6123447;23;20282;-82
2023/10/28 10:12:13;;;;;;;3.37;1.73;;;;;;;14.75;100.00;98391.44;6099969;23;20178;-81
2023/10/28 10:14:46;;;;;;;3.33;1.70;;;;;;;14.96;100.00;98392.97;6099376;23;20149;-83
2023/10/28 10:17:31;;;;;;;1.57;1.30;;;;;;;15.15;100.00;98391.25;6074847;23;20172;-82
2023/10/28 10:19:59;;;;;;;1.40;1.03;;;;;;;15.36;100.00;98395.41;6123323;23;20164;-82
2023/10/28 10:22:29;;;;;;;1.47;0.97;;;;;;;15.57;100.00;98379.13;6123191;23;20199;-83
2023/10/28 10:24:58;;;;;;;2.90;0.80;;;;;;;15.69;100.00;98369.56;6099257;23;20191;-82
2023/10/28 10:27:52;;;;;;;2.93;1.20;;;;;;;15.76;100.00;98366.53;6099458;23;20175;-82
2023/10/28 10:30:23;;;;;;;2.00;0.90;;;;;;;15.85;100.00;98360.25;6099269;23;20164;-83
2023/10/28 10:32:55;;;;;;;1.03;0.80;;;;;;;15.99;100.00;98354.19;6100423;23;20350;-82
2023/10/28 10:35:28;;;;;;;2.20;0.70;;;;;;;16.05;100.00;98358.44;6123417;23;20243;-82
2023/10/28 10:38:07;;;;;;;1.27;0.60;;;;;;;16.11;100.00;98358.09;6123794;23;20175;-82
2023/10/28 10:40:50;;;;;;;1.53;0.70;;;;;;;16.20;100.00;98356.38;6099597;23;20151;-81
2023/10/28 10:43:21;;;;;;;1.07;0.60;;;;;;;16.29;100.00;98351.94;6100283;23;20186;-82
2023/10/28 10:45:52;;;;;;;1.53;0.63;;;;;;;16.43;100.00;98348.56;6098960;23;20196;-82
2023/10/28 10:48:25;;;;;;;1.90;0.60;;;;;;;16.53;100.00;98345.72;6125238;23;20148;-82
2023/10/28 10:51:00;;;;;;;2.07;0.67;;;;;;;16.66;100.00;98342.34;6122932;23;20244;-82
2023/10/28 10:53:28;;;;;;;1.00;0.60;;;;;;;16.84;100.00;98341.59;6123325;23;20175;-83
2023/10/28 10:55:58;;;;;;;2.03;0.83;;;;;;;16.95;100.00;98340.34;6076216;23;20172;-81
2023/10/28 10:58:26;;;;;;;0.83;0.70;;;;;;;16.92;100.00;98335.53;6122977;23;20168;-83
2023/10/28 11:00:56;;;;;;;0.50;0.50;;;;;;;16.89;100.00;98343.44;6124622;23;20164;-82
2023/10/28 11:03:28;;;;;;;1.00;0.63;;;;;;;16.86;100.00;98347.50;6100319;23;20223;-83
2023/10/28 11:05:56;;;;;;;1.07;0.60;;;;;;;16.79;100.00;98340.84;6098513;23;20211;-82
2023/10/28 11:08:39;;;;;;;1.30;0.60;;;;;;;16.80;100.00;98345.19;6099952;23;20172;-82
2023/10/28 11:11:13;;;;;;;1.60;1.00;;;;;;;16.82;100.00;98342.97;6099112;23;20202;-82
2023/10/28 11:13:40;;;;;;;1.20;1.00;;;;;;;16.86;100.00;98338.59;6077025;23;20765;-82
2023/10/28 11:16:27;;;;;;;1.37;1.00;;;;;;;16.85;100.00;98342.38;6074896;23;20214;-83
2023/10/28 11:19:02;;;;;;;1.13;0.90;;;;;;;16.84;100.00;98347.00;6101397;23;20219;-83
2023/10/28 11:21:33;;;;;;;1.20;0.90;;;;;;;16.77;100.00;98343.84;6123754;23;20164;-83
2023/10/28 11:24:01;;;;;;;1.43;1.10;;;;;;;16.74;100.00;98357.94;6123652;23;20211;-83
2023/10/28 11:26:29;;;;;;;1.43;1.00;;;;;;;16.81;100.00;98355.69;6099097;23;20749;-82
2023/10/28 11:29:05;;;;;;;0.70;0.70;;;;;;;16.89;100.00;98354.25;6100340;23;20615;-82
2023/10/28 11:31:39;;;;;;;1.23;1.00;;;;;;;16.98;100.00;98366.03;6099505;23;20164;-82
2023/10/28 11:34:08;;;;;;;2.10;1.80;;;;;;;17.05;100.00;98372.69;6100863;23;20215;-83
2023/10/28 11:36:40;;;;;;;2.90;1.20;;;;;;;17.13;100.00;98377.44;6077785;23;20164;-83
2023/10/28 11:39:13;;;;;;;2.03;0.80;;;;;;;17.20;100.00;98366.25;6075971;23;20175;-83
2023/10/28 11:41:44;;;;;;;1.30;1.00;;;;;;;17.16;100.00;98367.94;6076430;23;20175;-82
2023/10/28 11:44:12;;;;;;;1.90;1.63;;;;;;;17.16;100.00;98367.94;6098946;23;20222;-82
2023/10/28 11:46:39;;;;;;;1.87;1.70;;;;;;;17.27;100.00;98368.56;6122542;23;20211;-82
2023/10/28 11:49:08;;;;;;;1.40;1.30;;;;;;;17.23;100.00;98362.94;6123129;23;20183;-82
2023/10/28 11:51:51;;;;;;;2.17;1.30;;;;;;;17.40;100.00;98368.66;6097614;23;20255;-82